サラエボ の空港の天気 - METARとTAF

サラエボ国際空港 ( LQSA / SJJ ) - ボスニア・ヘルツェゴビナ サラエボ
飛行場実況気象(Metar)
観測時間04/24 17:30 CEST (04/24 15:30 UTC)
風向・風速南南西 5m/s 瞬間風速10m/s
視程10km以上
天気現象
少しの雲 雲底高度 2130m
気温22℃
湿度35%
気圧1017hPa
METARLQSA 241530Z 21009G20KT 160V250 9999 FEW070 22/06 Q1017 NOSIG
過去の天気等 Google飛行場航空写真 Wunderground天気予報

過去48時間のMETAR

飛行場予報(TAF)
発表時間: 4/24 13:00 CEST (4/24 11:00 UTC)
予報対象時間: 24日14時 CEST ~ 25日14時 CEST
風向・風速南南東 2m/s
視程10km以上
全天の4割程度の雲 雲底高度 1680m
24日14時 CEST ~ 24日19時 CEST に 確率 30% で一時的に
風向・風速南南東 8m/s 瞬間風速 13m/s
24日19時 CEST ~ 25日8時 CEST に 確率 30% で一時的に
風向・風速東南東 7m/s
TAF LQSA 241100Z 2412/2512 15004KT 9999 SCT055 TX24/2414Z TN06/2504Z
PROB30 TEMPO 2412/2417 15015G25KT
PROB30 TEMPO 2417/2506 12014KT